Time;durP1;ratioP1;P1;durP2;ratioP2;P2;SDS_P1;SDS_P2;PMS_P1;PMS_P2;Temp;Humidity;BMP_temperature;BMP_pressure;BME280_temperature;BME280_humidity;BME280_pressure;Samples;Min_cycle;Max_cycle;Signal;HPM_P1;HPM_P2
2022/06/15 00:01:13;;;;;;;9.90;5.28;;;16.60;75.60;;;;;;5071280;28;20031;-68
2022/06/15 00:03:40;;;;;;;9.55;4.50;;;16.60;75.80;;;;;;5057864;28;20108;-68
2022/06/15 00:06:13;;;;;;;8.98;5.70;;;16.50;75.80;;;;;;5054413;28;20476;-69
2022/06/15 00:08:41;;;;;;;9.30;5.35;;;16.50;76.00;;;;;;5067578;28;20110;-68
2022/06/15 00:11:20;;;;;;;9.38;4.85;;;16.50;76.20;;;;;;5055781;28;20025;-68
2022/06/15 00:13:46;;;;;;;8.82;5.15;;;16.40;76.40;;;;;;5070347;28;20033;-69
2022/06/15 00:16:12;;;;;;;9.10;4.93;;;16.40;76.30;;;;;;5054930;28;20078;-68
2022/06/15 00:18:38;;;;;;;7.57;4.88;;;16.40;76.60;;;;;;5072236;28;20495;-68
2022/06/15 00:21:05;;;;;;;9.30;4.65;;;16.40;76.90;;;;;;5075262;28;20027;-68
2022/06/15 00:23:32;;;;;;;8.75;5.18;;;16.30;77.00;;;;;;5073162;28;20032;-69
2022/06/15 00:25:57;;;;;;;7.90;5.05;;;16.30;77.00;;;;;;5059217;28;20423;-69
2022/06/15 00:28:25;;;;;;;8.38;4.35;;;16.30;77.10;;;;;;5069726;28;20040;-69
2022/06/15 00:30:51;;;;;;;13.85;5.70;;;16.30;77.40;;;;;;5062358;28;20028;-69
2022/06/15 00:33:19;;;;;;;8.13;5.32;;;16.30;77.10;;;;;;5063981;28;20029;-69
2022/06/15 00:36:09;;;;;;;7.70;4.70;;;16.20;77.00;;;;;;5066035;28;20037;-69
2022/06/15 00:38:41;;;;;;;10.05;4.47;;;16.20;77.10;;;;;;5051789;28;20045;-68
2022/06/15 00:41:10;;;;;;;7.70;4.85;;;16.20;77.30;;;;;;5055021;28;20033;-68
2022/06/15 00:43:37;;;;;;;8.35;5.10;;;16.10;77.70;;;;;;5070556;28;20064;-68
2022/06/15 00:46:26;;;;;;;11.13;5.35;;;16.10;78.00;;;;;;5066009;28;20036;-68
2022/06/15 00:49:04;;;;;;;9.52;4.85;;;16.10;78.00;;;;;;5073583;28;20032;-68
2022/06/15 00:51:30;;;;;;;6.93;4.70;;;16.10;78.20;;;;;;5059606;28;20075;-69
2022/06/15 00:53:58;;;;;;;7.93;4.55;;;16.10;78.20;;;;;;5060500;28;20060;-69
2022/06/15 00:56:26;;;;;;;8.23;4.90;;;16.00;78.40;;;;;;5054510;28;20609;-69
2022/06/15 00:58:54;;;;;;;10.80;5.05;;;16.00;78.60;;;;;;5053925;28;20120;-69
2022/06/15 01:01:20;;;;;;;9.35;4.93;;;15.90;78.70;;;;;;5057352;28;20049;-68
2022/06/15 01:03:50;;;;;;;7.38;4.85;;;15.90;78.90;;;;;;5061325;28;20071;-68
2022/06/15 01:06:26;;;;;;;10.70;5.28;;;16.00;78.80;;;;;;5054286;28;20036;-68
2022/06/15 01:09:07;;;;;;;9.13;5.15;;;15.90;79.00;;;;;;5060764;28;20122;-69
2022/06/15 01:11:45;;;;;;;9.32;5.07;;;15.90;79.10;;;;;;5054393;28;20371;-68
2022/06/15 01:14:23;;;;;;;9.07;4.45;;;15.90;79.30;;;;;;5054183;28;20082;-68
2022/06/15 01:17:04;;;;;;;8.35;4.75;;;15.90;79.40;;;;;;5059878;28;20554;-68
2022/06/15 01:19:48;;;;;;;9.65;5.18;;;15.90;79.40;;;;;;5071101;28;20028;-68
2022/06/15 01:22:51;;;;;;;6.60;4.72;;;15.80;79.40;;;;;;5062966;28;20357;-69
2022/06/15 01:25:51;;;;;;;5.78;4.53;;;15.80;79.40;;;;;;5065576;28;20040;-68
2022/06/15 01:28:39;;;;;;;10.75;5.68;;;15.90;79.20;;;;;;5067600;28;20449;-68
2022/06/15 01:31:11;;;;;;;8.10;4.57;;;15.80;79.00;;;;;;5054167;28;20013;-68
2022/06/15 01:34:14;;;;;;;7.25;4.90;;;15.80;79.30;;;;;;5061479;28;20481;-68
2022/06/15 01:36:55;;;;;;;9.20;4.68;;;15.80;79.70;;;;;;5052958;28;20048;-67
2022/06/15 01:39:47;;;;;;;8.82;5.15;;;15.70;79.90;;;;;;5072682;28;20488;-67
2022/06/15 01:42:26;;;;;;;9.10;5.18;;;15.70;80.20;;;;;;5067331;28;20039;-67
2022/06/15 01:45:01;;;;;;;7.20;4.78;;;15.70;80.10;;;;;;5068259;28;20618;-67
2022/06/15 01:47:31;;;;;;;7.82;4.18;;;15.70;80.70;;;;;;5058949;28;20434;-67
2022/06/15 01:50:08;;;;;;;9.10;4.78;;;15.70;80.30;;;;;;5072486;28;20492;-67
2022/06/15 01:52:51;;;;;;;10.20;5.00;;;15.70;80.40;;;;;;5065867;28;20079;-67
2022/06/15 01:55:38;;;;;;;12.02;5.53;;;15.70;80.50;;;;;;5053652;28;20480;-67
2022/06/15 01:58:08;;;;;;;9.13;5.00;;;15.70;80.50;;;;;;5055208;28;20070;-67
2022/06/15 02:00:34;;;;;;;8.05;4.28;;;15.60;80.30;;;;;;5065455;28;20518;-67
2022/06/15 02:03:28;;;;;;;9.30;4.85;;;15.60;80.60;;;;;;5053853;28;20056;-67
2022/06/15 02:06:10;;;;;;;7.80;4.30;;;15.60;80.70;;;;;;5062166;28;20028;-67
2022/06/15 02:09:01;;;;;;;6.57;4.32;;;15.50;80.80;;;;;;5070118;28;20060;-67
2022/06/15 02:11:31;;;;;;;9.45;4.60;;;15.50;80.90;;;;;;5053163;28;20032;-67
2022/06/15 02:14:09;;;;;;;6.82;4.40;;;15.50;80.80;;;;;;5059475;28;20036;-67
2022/06/15 02:16:43;;;;;;;8.02;4.20;;;15.50;81.10;;;;;;5071606;28;20033;-67
2022/06/15 02:19:13;;;;;;;6.30;3.88;;;15.50;81.30;;;;;;5061783;28;20115;-68
2022/06/15 02:21:41;;;;;;;6.85;4.25;;;15.40;81.40;;;;;;5053272;28;20040;-68
2022/06/15 02:24:11;;;;;;;7.72;4.45;;;15.40;81.50;;;;;;5053585;28;20038;-68
2022/06/15 02:26:39;;;;;;;7.78;4.65;;;15.40;81.70;;;;;;5066834;28;20028;-68
2022/06/15 02:29:10;;;;;;;5.60;3.95;;;15.40;81.70;;;;;;5070066;28;20036;-68
2022/06/15 02:31:36;;;;;;;7.13;4.40;;;15.40;82.40;;;;;;5069660;28;20115;-68
2022/06/15 02:34:04;;;;;;;7.90;4.53;;;15.40;82.00;;;;;;5061979;28;20041;-69
2022/06/15 02:36:32;;;;;;;6.38;4.88;;;15.40;82.00;;;;;;5071098;28;20032;-68
2022/06/15 02:38:58;;;;;;;8.70;4.10;;;15.40;81.70;;;;;;5058496;28;20435;-68
2022/06/15 02:41:25;;;;;;;7.63;4.22;;;15.40;82.00;;;;;;5070769;28;20027;-68
2022/06/15 02:43:59;;;;;;;8.60;4.43;;;15.30;82.00;;;;;;5062965;28;20036;-68
2022/06/15 02:46:26;;;;;;;7.23;4.10;;;15.40;82.10;;;;;;5054171;28;20112;-68
2022/06/15 02:48:53;;;;;;;10.00;4.10;;;15.40;82.10;;;;;;5063000;28;20276;-68
2022/06/15 02:51:49;;;;;;;7.22;4.30;;;15.40;82.20;;;;;;5052716;28;20036;-68
2022/06/15 02:54:29;;;;;;;7.60;5.40;;;15.40;82.10;;;;;;5052751;28;20035;-68
2022/06/15 02:56:55;;;;;;;7.88;4.32;;;15.40;82.10;;;;;;5052667;28;20043;-68
2022/06/15 02:59:20;;;;;;;6.13;3.63;;;15.40;82.00;;;;;;5052913;28;20030;-66
2022/06/15 03:01:46;;;;;;;6.03;3.83;;;15.40;82.30;;;;;;5052604;28;20033;-68
2022/06/15 03:04:12;;;;;;;6.78;3.65;;;15.40;82.50;;;;;;5052698;28;20033;-67
2022/06/15 03:06:38;;;;;;;8.73;4.45;;;15.30;82.60;;;;;;5060066;28;20028;-67
2022/06/15 03:09:03;;;;;;;7.35;3.97;;;15.40;82.80;;;;;;5070201;28;20044;-66
2022/06/15 03:11:29;;;;;;;8.23;4.82;;;15.40;82.60;;;;;;5064758;28;20037;-67
2022/06/15 03:13:55;;;;;;;7.93;4.78;;;15.30;82.60;;;;;;5061132;28;20024;-65
2022/06/15 03:16:21;;;;;;;8.07;4.65;;;15.30;82.80;;;;;;5066223;28;20147;-65
2022/06/15 03:18:47;;;;;;;7.68;3.70;;;15.30;82.80;;;;;;5059792;28;20450;-65
2022/06/15 03:21:13;;;;;;;10.20;3.72;;;15.30;82.80;;;;;;5066655;28;20131;-65
2022/06/15 03:23:38;;;;;;;9.48;4.50;;;15.30;82.90;;;;;;5065121;28;20144;-65
2022/06/15 03:26:04;;;;;;;5.30;3.65;;;15.30;83.60;;;;;;5059821;28;20025;-65
2022/06/15 03:28:30;;;;;;;6.82;3.38;;;15.30;83.20;;;;;;5057071;28;20028;-65
2022/06/15 03:30:57;;;;;;;9.75;4.30;;;15.30;83.30;;;;;;5059861;28;20028;-64
2022/06/15 03:33:23;;;;;;;6.95;4.18;;;15.30;83.50;;;;;;5056523;28;20050;-65
2022/06/15 03:35:49;;;;;;;6.88;3.53;;;15.30;83.80;;;;;;5064279;28;20029;-66
2022/06/15 03:38:15;;;;;;;13.10;5.35;;;15.30;83.90;;;;;;5064203;28;20399;-65
2022/06/15 03:40:43;;;;;;;7.28;4.05;;;15.30;84.10;;;;;;5071936;28;20017;-66
2022/06/15 03:43:09;;;;;;;11.25;4.40;;;15.30;84.30;;;;;;5067499;28;20031;-66
2022/06/15 03:45:36;;;;;;;6.50;4.60;;;15.40;84.50;;;;;;5064862;28;20029;-66
2022/06/15 03:48:02;;;;;;;7.45;4.57;;;15.40;84.70;;;;;;5053223;28;20032;-66
2022/06/15 03:50:31;;;;;;;9.07;4.35;;;15.50;85.00;;;;;;5052091;28;20048;-66
2022/06/15 03:52:58;;;;;;;8.75;4.25;;;15.50;85.10;;;;;;5052952;28;20358;-65
2022/06/15 03:55:23;;;;;;;10.65;4.35;;;15.50;85.20;;;;;;5054359;28;20505;-65
2022/06/15 03:57:49;;;;;;;6.47;3.95;;;15.60;85.40;;;;;;5056654;28;20045;-65
2022/06/15 04:00:18;;;;;;;7.70;4.10;;;15.60;85.70;;;;;;5052131;28;20025;-65
2022/06/15 04:02:45;;;;;;;8.75;5.22;;;15.70;86.00;;;;;;5066675;28;20507;-65
2022/06/15 04:05:17;;;;;;;6.82;4.25;;;15.70;86.20;;;;;;5071680;28;20021;-65
2022/06/15 04:10:27;;;;;;;10.93;4.30;;;15.80;86.50;;;;;;5051521;28;20029;-66
2022/06/15 04:12:53;;;;;;;9.50;4.40;;;15.80;87.10;;;;;;5051964;28;20075;-66
2022/06/15 04:15:18;;;;;;;8.82;4.15;;;15.80;86.60;;;;;;5067887;28;20031;-66
2022/06/15 04:17:44;;;;;;;6.72;4.07;;;15.90;86.70;;;;;;5068827;28;20033;-66
2022/06/15 04:20:32;;;;;;;8.98;4.15;;;15.90;86.70;;;;;;5058666;28;20037;-66
2022/06/15 04:23:06;;;;;;;5.57;3.67;;;16.00;86.70;;;;;;5064546;28;20049;-66
2022/06/15 04:25:35;;;;;;;9.23;3.78;;;16.00;86.40;;;;;;5051482;28;20037;-66
2022/06/15 04:28:01;;;;;;;6.10;3.70;;;16.00;86.40;;;;;;5052479;28;20025;-66
2022/06/15 04:30:26;;;;;;;6.43;3.35;;;16.10;86.50;;;;;;5068738;28;20503;-67
2022/06/15 04:32:52;;;;;;;7.03;3.50;;;16.10;86.60;;;;;;5067772;28;20031;-67
2022/06/15 04:35:18;;;;;;;6.47;3.30;;;16.10;86.40;;;;;;5071268;28;20055;-66
2022/06/15 04:37:43;;;;;;;6.88;3.80;;;16.20;86.50;;;;;;5067490;28;20032;-66
2022/06/15 04:40:12;;;;;;;5.60;3.60;;;16.20;86.20;;;;;;5066009;28;20032;-66
2022/06/15 04:42:40;;;;;;;6.78;3.92;;;16.30;86.00;;;;;;5070357;28;20518;-66
2022/06/15 04:45:07;;;;;;;4.88;3.50;;;16.40;85.90;;;;;;5052021;28;20037;-66
2022/06/15 04:47:33;;;;;;;6.97;3.10;;;16.40;85.90;;;;;;5056290;28;20028;-65
2022/06/15 04:49:59;;;;;;;5.25;3.30;;;16.40;85.40;;;;;;5055852;28;20564;-66
2022/06/15 04:52:25;;;;;;;6.28;3.45;;;16.50;85.40;;;;;;5067390;28;20344;-65
2022/06/15 04:54:50;;;;;;;5.85;2.72;;;16.50;85.30;;;;;;5073431;28;20031;-66
2022/06/15 04:57:16;;;;;;;7.97;3.13;;;16.60;85.10;;;;;;5059945;28;20064;-65
2022/06/15 04:59:42;;;;;;;4.88;2.35;;;16.60;85.00;;;;;;5066327;28;20036;-65
2022/06/15 05:02:09;;;;;;;5.75;3.20;;;16.60;84.90;;;;;;5054257;28;20043;-66
2022/06/15 05:04:35;;;;;;;5.13;3.20;;;16.70;84.80;;;;;;5067994;28;20021;-66
2022/06/15 05:07:01;;;;;;;7.97;3.20;;;16.80;84.40;;;;;;5074360;28;20039;-66
2022/06/15 05:09:26;;;;;;;5.15;3.30;;;16.90;84.80;;;;;;5072247;28;20040;-67
2022/06/15 05:11:52;;;;;;;8.10;2.65;;;16.90;84.80;;;;;;5074169;28;20115;-66
2022/06/15 05:14:17;;;;;;;9.20;3.63;;;17.00;84.70;;;;;;5059715;28;20040;-66
2022/06/15 05:16:43;;;;;;;8.88;3.47;;;17.10;84.30;;;;;;5053837;28;20491;-66
2022/06/15 05:19:09;;;;;;;4.25;2.80;;;17.10;84.40;;;;;;5062570;28;20032;-66
2022/06/15 05:21:39;;;;;;;8.25;4.38;;;17.20;84.20;;;;;;5054783;28;20420;-66
2022/06/15 05:24:05;;;;;;;4.45;3.10;;;17.30;84.40;;;;;;5064651;28;20025;-66
2022/06/15 05:26:30;;;;;;;5.50;2.85;;;17.30;84.50;;;;;;5072350;28;20135;-67
2022/06/15 05:28:56;;;;;;;4.75;2.78;;;17.40;84.60;;;;;;5068929;28;20020;-67
2022/06/15 05:31:22;;;;;;;5.53;3.55;;;17.50;84.60;;;;;;5053819;28;20105;-66
2022/06/15 05:33:53;;;;;;;6.90;3.53;;;17.60;83.80;;;;;;5053113;28;22258;-65
2022/06/15 05:36:21;;;;;;;6.72;3.20;;;17.70;83.30;;;;;;5050615;28;20037;-67
2022/06/15 05:38:47;;;;;;;5.47;2.92;;;17.80;82.60;;;;;;5051979;28;20051;-66
2022/06/15 05:41:13;;;;;;;9.23;3.63;;;17.90;82.60;;;;;;5062808;28;20037;-66
2022/06/15 05:43:47;;;;;;;8.52;3.25;;;17.90;82.30;;;;;;5072447;28;20056;-66
2022/06/15 05:46:30;;;;;;;11.80;3.58;;;18.00;81.30;;;;;;5052993;28;20522;-66
2022/06/15 05:48:59;;;;;;;5.30;2.40;;;18.10;80.30;;;;;;5054267;28;20044;-65
2022/06/15 05:51:25;;;;;;;6.18;2.78;;;18.10;80.30;;;;;;5055693;28;20143;-72
2022/06/15 05:53:51;;;;;;;5.68;3.00;;;18.20;79.40;;;;;;5052212;28;20101;-74
2022/06/15 05:56:17;;;;;;;10.25;2.13;;;18.20;79.00;;;;;;5052987;28;20484;-73
2022/06/15 05:58:43;;;;;;;7.97;3.38;;;18.20;78.40;;;;;;5051935;28;20500;-70
2022/06/15 06:01:27;;;;;;;6.68;3.03;;;18.20;78.10;;;;;;5050896;28;20489;-74
2022/06/15 06:03:54;;;;;;;6.15;2.72;;;18.20;78.40;;;;;;5052257;28;20032;-76
2022/06/15 06:06:20;;;;;;;8.43;2.70;;;18.30;79.20;;;;;;5051474;28;20525;-77
2022/06/15 06:08:45;;;;;;;5.90;2.35;;;18.40;78.20;;;;;;5052903;28;20045;-73
2022/06/15 06:11:11;;;;;;;8.20;2.83;;;18.50;77.80;;;;;;5051163;28;20102;-72
2022/06/15 06:13:37;;;;;;;3.63;2.25;;;18.50;77.50;;;;;;5052862;28;20323;-74
2022/06/15 06:16:02;;;;;;;8.65;2.45;;;18.50;77.30;;;;;;5051877;28;22176;-72
2022/06/15 06:18:28;;;;;;;10.45;2.83;;;18.60;77.90;;;;;;5052674;28;20044;-72
2022/06/15 06:20:54;;;;;;;8.07;2.50;;;18.60;78.30;;;;;;5051613;28;20020;-71
2022/06/15 06:23:19;;;;;;;9.07;2.85;;;18.60;76.80;;;;;;5051598;28;20028;-72
2022/06/15 06:25:50;;;;;;;7.60;2.30;;;18.60;76.80;;;;;;5051975;28;20047;-71
2022/06/15 06:28:27;;;;;;;16.52;3.20;;;18.70;75.90;;;;;;5050279;28;20037;-71
2022/06/15 06:30:54;;;;;;;4.97;2.55;;;18.70;76.70;;;;;;5052849;28;20557;-71
2022/06/15 06:33:20;;;;;;;6.97;2.65;;;18.80;75.90;;;;;;5052299;28;20600;-71
2022/06/15 06:35:46;;;;;;;10.75;2.40;;;18.80;74.90;;;;;;5050747;28;20047;-71
2022/06/15 06:38:13;;;;;;;5.93;2.50;;;18.80;75.00;;;;;;5052934;28;20032;-71
2022/06/15 06:40:38;;;;;;;6.88;2.45;;;18.90;75.50;;;;;;5050920;28;20028;-69
2022/06/15 06:43:04;;;;;;;8.48;3.03;;;19.00;75.20;;;;;;5051105;28;20502;-72
2022/06/15 06:45:30;;;;;;;7.68;2.55;;;19.10;75.30;;;;;;5050957;28;20033;-72
2022/06/15 06:47:56;;;;;;;5.65;2.40;;;19.30;74.40;;;;;;5052033;28;20033;-72
2022/06/15 06:50:22;;;;;;;6.63;2.55;;;19.40;74.00;;;;;;5052139;28;20567;-72
2022/06/15 06:52:49;;;;;;;3.17;1.80;;;19.60;74.40;;;;;;5051264;28;20033;-72
2022/06/15 06:55:15;;;;;;;5.88;2.00;;;19.70;72.80;;;;;;5050361;28;20052;-72
2022/06/15 06:57:40;;;;;;;8.02;2.25;;;20.00;72.60;;;;;;5050771;28;20233;-71
2022/06/15 07:00:07;;;;;;;6.97;2.25;;;20.10;72.80;;;;;;5052599;28;20575;-71
2022/06/15 07:02:32;;;;;;;6.43;2.47;;;20.30;72.90;;;;;;5056268;28;20036;-71
2022/06/15 07:04:58;;;;;;;4.57;2.15;;;20.30;71.90;;;;;;5051745;28;20427;-72
2022/06/15 07:07:23;;;;;;;5.90;2.08;;;20.50;71.70;;;;;;5050245;28;20048;-69
2022/06/15 07:09:49;;;;;;;6.38;2.80;;;20.60;70.90;;;;;;5052311;28;20040;-71
2022/06/15 07:12:15;;;;;;;6.60;2.25;;;20.60;70.20;;;;;;5051014;28;20024;-71
2022/06/15 07:14:40;;;;;;;5.97;2.20;;;20.80;70.40;;;;;;5052700;28;20058;-70
2022/06/15 07:17:06;;;;;;;4.38;1.70;;;20.90;69.20;;;;;;5050180;28;20041;-70
2022/06/15 07:19:31;;;;;;;4.65;1.80;;;21.00;68.90;;;;;;5066568;28;20101;-70
2022/06/15 07:21:57;;;;;;;3.42;1.90;;;21.10;67.80;;;;;;5050479;28;20039;-71
2022/06/15 07:24:22;;;;;;;6.85;1.90;;;21.20;67.30;;;;;;5049393;28;20048;-70
2022/06/15 07:26:48;;;;;;;7.50;2.13;;;21.30;67.30;;;;;;5046296;28;20450;-71
2022/06/15 07:29:18;;;;;;;4.82;1.80;;;21.30;66.50;;;;;;5050972;28;20024;-71
2022/06/15 07:31:48;;;;;;;3.33;1.65;;;21.40;66.70;;;;;;5049119;28;20053;-71
2022/06/15 07:34:14;;;;;;;4.13;1.70;;;21.40;65.70;;;;;;5049567;28;20036;-71
2022/06/15 07:36:46;;;;;;;5.60;2.08;;;21.40;65.50;;;;;;5058464;28;20033;-70
2022/06/15 07:39:21;;;;;;;5.22;1.67;;;21.40;64.30;;;;;;5050492;28;20035;-71
2022/06/15 07:41:47;;;;;;;5.22;1.90;;;21.40;64.20;;;;;;5050324;28;20471;-71
2022/06/15 07:44:14;;;;;;;3.85;1.48;;;21.30;63.40;;;;;;5049817;28;20044;-71
2022/06/15 07:46:40;;;;;;;3.10;1.40;;;21.30;63.90;;;;;;5049130;28;20408;-70
2022/06/15 07:51:53;;;;;;;;;;;21.30;64.30;;;;;;5048960;28;20115;-70
2022/06/15 07:54:20;;;;;;;4.20;1.60;;;21.30;65.20;;;;;;5049267;28;19912;-71
2022/06/15 07:56:46;;;;;;;2.10;1.27;;;21.30;63.30;;;;;;5049343;28;20049;-70
2022/06/15 07:59:13;;;;;;;5.40;1.40;;;21.30;62.60;;;;;;5050387;28;20518;-71
2022/06/15 08:01:39;;;;;;;3.60;1.42;;;21.30;61.90;;;;;;5049526;28;20033;-70
2022/06/15 08:04:05;;;;;;;3.72;1.52;;;21.20;62.10;;;;;;5049126;28;20028;-70
2022/06/15 08:06:31;;;;;;;2.42;1.52;;;21.20;62.50;;;;;;5048606;28;20033;-71
2022/06/15 08:08:57;;;;;;;3.50;1.50;;;21.20;62.60;;;;;;5048008;28;20412;-70
2022/06/15 08:11:23;;;;;;;5.50;1.58;;;21.20;63.00;;;;;;5049089;28;20119;-71
2022/06/15 08:13:49;;;;;;;4.75;1.90;;;21.20;61.70;;;;;;5050751;28;20588;-71
2022/06/15 08:16:16;;;;;;;3.25;1.65;;;21.20;61.70;;;;;;5048506;28;20021;-72
2022/06/15 08:18:54;;;;;;;3.55;1.75;;;21.20;61.90;;;;;;5049130;28;20084;-71
2022/06/15 08:21:23;;;;;;;3.30;1.48;;;21.30;62.30;;;;;;5048818;28;20029;-71
2022/06/15 08:23:54;;;;;;;2.88;1.38;;;21.30;61.00;;;;;;5052455;28;20039;-71
2022/06/15 08:26:24;;;;;;;3.47;1.58;;;21.30;61.30;;;;;;5053892;28;20188;-72
2022/06/15 08:28:54;;;;;;;4.47;1.70;;;21.30;61.20;;;;;;5074410;28;20298;-71
2022/06/15 08:31:20;;;;;;;3.40;1.60;;;21.30;61.30;;;;;;5064984;28;20033;-72
2022/06/15 08:33:46;;;;;;;7.13;2.70;;;21.40;61.00;;;;;;5081716;28;20029;-71
2022/06/15 08:36:13;;;;;;;3.80;1.90;;;21.40;60.60;;;;;;5079155;28;20032;-71
2022/06/15 08:38:40;;;;;;;2.95;1.50;;;21.40;60.40;;;;;;5082543;28;20033;-70
2022/06/15 08:41:08;;;;;;;5.00;1.42;;;21.40;59.90;;;;;;5066486;28;20035;-72
2022/06/15 08:44:02;;;;;;;5.25;1.80;;;21.40;59.50;;;;;;5064336;28;22650;-72
2022/06/15 08:46:33;;;;;;;6.13;1.50;;;21.30;59.80;;;;;;5063817;28;20124;-72
2022/06/15 08:49:02;;;;;;;4.50;1.63;;;21.30;59.90;;;;;;5064734;28;20549;-71
2022/06/15 08:51:36;;;;;;;6.28;2.08;;;21.40;60.40;;;;;;5063897;28;20038;-71
2022/06/15 08:54:06;;;;;;;4.55;1.70;;;21.40;60.10;;;;;;5062500;28;20031;-71
2022/06/15 08:57:05;;;;;;;2.60;1.83;;;21.50;61.10;;;;;;5066214;28;20047;-70
2022/06/15 08:59:54;;;;;;;5.47;2.05;;;21.60;60.90;;;;;;5015812;28;20047;-71
2022/06/15 09:02:28;;;;;;;7.63;2.00;;;21.60;60.10;;;;;;5055654;28;21817;-71
2022/06/15 09:04:57;;;;;;;;;;;21.60;59.60;;;;;;5054748;28;20032;-71
2022/06/15 09:07:34;;;;;;;4.43;1.73;;;21.60;59.60;;;;;;5051327;28;19990;-71
2022/06/15 09:10:33;;;;;;;3.38;1.77;;;21.60;59.60;;;;;;5050720;28;20040;-71
2022/06/15 09:13:14;;;;;;;3.45;1.73;;;21.60;59.40;;;;;;5051473;28;20126;-71
2022/06/15 09:15:58;;;;;;;5.30;2.20;;;21.50;58.70;;;;;;5049173;28;20021;-71
2022/06/15 09:18:37;;;;;;;3.90;1.83;;;21.50;58.90;;;;;;5049429;28;20047;-71
2022/06/15 09:21:09;;;;;;;4.80;1.80;;;21.50;59.20;;;;;;5050113;28;20048;-71
2022/06/15 09:23:49;;;;;;;3.58;1.42;;;21.50;59.20;;;;;;5047239;28;20110;-66
2022/06/15 09:26:35;;;;;;;6.60;1.80;;;21.60;59.10;;;;;;5049137;28;20116;-67
2022/06/15 09:29:04;;;;;;;4.40;1.65;;;21.70;59.00;;;;;;5055241;28;20040;-66
2022/06/15 09:31:49;;;;;;;5.43;1.95;;;21.70;59.00;;;;;;5080974;28;20051;-66
2022/06/15 09:34:23;;;;;;;3.58;1.52;;;21.80;58.40;;;;;;5066868;28;20033;-66
2022/06/15 09:36:54;;;;;;;4.80;2.20;;;21.90;58.80;;;;;;5053773;28;20067;-65
2022/06/15 09:39:21;;;;;;;4.68;1.90;;;21.90;58.20;;;;;;5065107;28;20052;-66
2022/06/15 09:42:06;;;;;;;2.75;1.52;;;21.90;58.30;;;;;;5073519;28;20025;-66
2022/06/15 09:45:07;;;;;;;6.55;2.00;;;21.90;58.30;;;;;;5072754;28;20067;-66
2022/06/15 09:48:02;;;;;;;5.75;2.47;;;22.00;58.00;;;;;;5073729;28;20036;-66
2022/06/15 09:50:54;;;;;;;3.97;1.90;;;22.00;57.80;;;;;;5053795;28;20040;-66
2022/06/15 09:53:19;;;;;;;6.45;1.80;;;22.00;58.10;;;;;;5057328;28;20024;-64
2022/06/15 09:55:51;;;;;;;6.78;2.25;;;22.00;58.10;;;;;;5073294;28;20024;-66
2022/06/15 09:58:20;;;;;;;2.83;1.80;;;22.10;58.00;;;;;;5062937;28;20056;-66
2022/06/15 10:00:48;;;;;;;5.78;2.25;;;22.20;58.40;;;;;;5050336;28;20450;-66
2022/06/15 10:03:28;;;;;;;7.68;2.08;;;22.30;57.30;;;;;;5050097;28;22244;-66
2022/06/15 10:05:58;;;;;;;5.72;2.00;;;22.30;57.00;;;;;;5049383;28;20044;-66
2022/06/15 10:08:23;;;;;;;3.35;2.05;;;22.40;57.20;;;;;;5050683;28;20071;-66
2022/06/15 10:10:53;;;;;;;5.90;2.10;;;22.40;57.30;;;;;;5063797;28;20403;-65
2022/06/15 10:13:18;;;;;;;4.70;2.30;;;22.50;57.10;;;;;;5055341;28;20415;-66
2022/06/15 10:15:44;;;;;;;5.22;1.90;;;22.60;56.80;;;;;;5072722;28;20028;-66
2022/06/15 10:18:17;;;;;;;3.33;1.75;;;22.70;56.80;;;;;;5070976;28;20082;-66
2022/06/15 10:21:17;;;;;;;4.10;1.70;;;22.70;56.50;;;;;;5072851;28;20040;-66
2022/06/15 10:24:06;;;;;;;4.45;2.17;;;22.80;56.90;;;;;;5042282;28;20037;-66
2022/06/15 10:26:43;;;;;;;5.57;2.40;;;22.90;57.00;;;;;;5052809;28;20037;-65
2022/06/15 10:29:14;;;;;;;6.82;2.00;;;23.00;56.90;;;;;;5060982;28;20027;-66
2022/06/15 10:32:02;;;;;;;3.17;2.10;;;23.10;57.00;;;;;;5058992;28;20074;-66
2022/06/15 10:34:33;;;;;;;3.50;2.13;;;23.10;56.50;;;;;;5053278;28;20055;-66
2022/06/15 10:37:05;;;;;;;4.10;1.92;;;23.10;56.80;;;;;;5069304;28;20089;-66
2022/06/15 10:39:34;;;;;;;11.98;3.13;;;23.10;56.40;;;;;;5071307;28;20479;-66
2022/06/15 10:42:08;;;;;;;6.65;2.50;;;23.20;56.10;;;;;;5071938;28;20067;-66
2022/06/15 10:44:48;;;;;;;3.65;1.90;;;23.20;56.10;;;;;;5071445;28;20032;-66
2022/06/15 10:47:31;;;;;;;6.32;2.47;;;23.30;55.80;;;;;;5072595;28;20106;-66
2022/06/15 10:50:00;;;;;;;4.68;2.28;;;23.40;56.10;;;;;;5054254;28;20025;-66
2022/06/15 10:52:49;;;;;;;5.20;2.10;;;23.40;55.70;;;;;;5052674;28;20033;-66
2022/06/15 11:04:19;;;;;;;5.32;2.20;;;23.50;55.00;;;;;;5070901;28;20032;-66
2022/06/15 11:06:59;;;;;;;7.40;2.17;;;23.40;55.10;;;;;;5072168;28;20153;-66
2022/06/15 11:09:32;;;;;;;7.30;2.33;;;23.50;54.80;;;;;;5070219;28;20072;-66
2022/06/15 11:12:01;;;;;;;5.75;2.15;;;23.50;54.40;;;;;;5071575;28;20024;-66
2022/06/15 11:14:50;;;;;;;3.65;2.22;;;23.40;54.70;;;;;;5070238;28;20187;-66
2022/06/15 11:20:46;;;;;;;4.75;1.92;;;23.50;54.90;;;;;;5052137;28;20120;-65
2022/06/15 11:23:45;;;;;;;6.57;1.92;;;23.50;55.10;;;;;;5059183;28;20430;-65
2022/06/15 11:29:48;;;;;;;4.63;2.10;;;23.70;54.90;;;;;;5059574;28;20025;-66
2022/06/15 11:32:35;;;;;;;6.72;2.00;;;23.70;55.30;;;;;;5069503;28;20055;-66
2022/06/15 11:35:13;;;;;;;4.28;2.38;;;23.80;55.80;;;;;;5069376;28;20120;-66
2022/06/15 11:37:51;;;;;;;6.00;2.03;;;23.80;55.30;;;;;;5069674;28;20278;-66
2022/06/15 11:40:26;;;;;;;6.15;2.38;;;23.80;54.50;;;;;;5051823;28;20039;-66
2022/06/15 11:42:53;;;;;;;4.82;2.30;;;23.80;54.00;;;;;;5052313;28;20028;-68
2022/06/15 11:45:25;;;;;;;5.28;3.03;;;23.90;54.00;;;;;;5065559;28;20013;-67
2022/06/15 11:48:07;;;;;;;4.63;2.38;;;23.90;53.90;;;;;;5051437;28;20567;-68
2022/06/15 11:50:46;;;;;;;7.57;3.13;;;23.90;53.60;;;;;;5048069;28;20507;-68
2022/06/15 11:53:21;;;;;;;5.95;2.33;;;23.90;53.70;;;;;;5051977;28;20459;-69
2022/06/15 11:56:12;;;;;;;6.10;2.70;;;23.90;53.80;;;;;;5048005;28;20116;-67
2022/06/15 11:58:50;;;;;;;5.22;2.08;;;23.90;53.90;;;;;;5052088;28;20045;-67
2022/06/15 12:01:23;;;;;;;4.63;2.47;;;23.90;53.90;;;;;;5053084;28;20036;-68
2022/06/15 12:03:49;;;;;;;5.40;2.33;;;24.00;54.30;;;;;;5055963;28;20058;-68
2022/06/15 12:06:39;;;;;;;4.80;2.67;;;24.10;54.40;;;;;;5053638;28;20479;-68
2022/06/15 12:09:35;;;;;;;4.47;2.38;;;24.30;54.80;;;;;;5053578;28;20105;-68
2022/06/15 12:12:38;;;;;;;5.85;1.90;;;24.30;53.50;;;;;;5053860;28;20574;-68
2022/06/15 12:15:29;;;;;;;4.30;1.95;;;24.40;53.10;;;;;;5052653;28;20032;-67
2022/06/15 12:18:22;;;;;;;5.78;2.35;;;24.50;53.70;;;;;;5052804;28;20037;-68
2022/06/15 12:20:57;;;;;;;8.65;2.47;;;24.60;53.80;;;;;;5053716;28;20029;-68
2022/06/15 12:23:32;;;;;;;4.40;2.63;;;24.70;53.90;;;;;;5054479;28;20029;-68
2022/06/15 12:26:20;;;;;;;7.03;3.17;;;24.90;54.00;;;;;;5052710;28;20415;-68
2022/06/15 12:29:01;;;;;;;5.32;2.10;;;25.00;53.50;;;;;;5057583;28;20035;-67
2022/06/15 12:31:48;;;;;;;4.32;2.10;;;25.10;52.50;;;;;;5053389;28;20408;-67
2022/06/15 12:34:23;;;;;;;5.00;2.22;;;25.00;52.10;;;;;;5052832;28;20937;-68
2022/06/15 12:37:24;;;;;;;5.28;2.28;;;25.10;52.40;;;;;;5053610;28;20451;-70
2022/06/15 12:40:23;;;;;;;6.60;2.55;;;25.10;52.30;;;;;;5052646;28;20102;-69
2022/06/15 12:42:54;;;;;;;5.05;1.80;;;25.20;51.40;;;;;;5050652;28;20409;-68
2022/06/15 12:45:48;;;;;;;4.20;2.20;;;25.20;51.30;;;;;;5053462;28;20036;-67
2022/06/15 12:48:21;;;;;;;6.95;2.97;;;25.30;51.60;;;;;;5053712;28;20388;-69
2022/06/15 12:50:59;;;;;;;4.13;2.20;;;25.40;51.60;;;;;;5050703;28;20097;-69
2022/06/15 12:53:30;;;;;;;9.00;2.83;;;25.50;51.50;;;;;;5054178;28;20444;-69
2022/06/15 12:56:11;;;;;;;5.10;2.20;;;25.70;51.10;;;;;;5050678;28;20415;-69
2022/06/15 12:59:06;;;;;;;3.83;2.13;;;25.80;51.00;;;;;;5053368;28;20430;-68
2022/06/15 13:01:38;;;;;;;3.83;2.33;;;25.90;51.10;;;;;;5053446;28;20071;-68
2022/06/15 13:04:27;;;;;;;7.32;3.08;;;26.00;50.40;;;;;;5054080;28;20396;-68
2022/06/15 13:07:31;;;;;;;4.75;2.13;;;26.10;50.70;;;;;;5053081;28;20041;-68
2022/06/15 13:10:09;;;;;;;7.25;2.70;;;26.10;50.00;;;;;;5053221;28;20389;-70
2022/06/15 13:12:48;;;;;;;3.47;1.95;;;26.10;49.90;;;;;;5052907;28;20052;-69
2022/06/15 13:15:20;;;;;;;3.50;2.20;;;26.10;49.20;;;;;;5051679;28;20501;-68
2022/06/15 13:18:12;;;;;;;3.95;2.28;;;26.20;49.20;;;;;;5051449;28;20457;-68
2022/06/15 13:20:57;;;;;;;7.05;3.00;;;26.30;48.60;;;;;;5048430;28;20499;-69
2022/06/15 13:23:23;;;;;;;5.18;2.13;;;26.20;48.70;;;;;;5051658;28;20036;-68
2022/06/15 13:26:08;;;;;;;6.97;2.58;;;26.30;48.90;;;;;;5051655;28;20036;-69
2022/06/15 13:28:38;;;;;;;5.13;2.13;;;26.40;48.50;;;;;;5052674;28;20044;-69
2022/06/15 13:31:14;;;;;;;4.43;2.30;;;26.40;48.10;;;;;;5060840;28;20499;-66
2022/06/15 13:33:46;;;;;;;3.05;2.10;;;26.50;49.00;;;;;;5052973;28;20033;-69
2022/06/15 13:36:11;;;;;;;7.18;2.40;;;26.60;48.50;;;;;;5051678;28;20523;-68